Time;durP1;ratioP1;P1;durP2;ratioP2;P2;SDS_P1;SDS_P2;PMS_P1;PMS_P2;Temp;Humidity;BMP_temperature;BMP_pressure;BME280_temperature;BME280_humidity;BME280_pressure;Samples;Min_cycle;Max_cycle;Signal;HPM_P1;HPM_P2
2024/04/10 00:14:43;;;;;;;12.33;10.17;;;12.10;99.90;;;;;;4579953;30;20306;-83
2024/04/10 00:35:24;;;;;;;11.83;10.33;;;11.80;99.90;;;;;;4607539;30;20390;-82
2024/04/10 01:00:04;;;;;;;16.30;10.80;;;11.60;99.90;;;;;;4697343;29;20492;-82
2024/04/10 01:15:30;;;;;;;13.73;9.83;;;11.70;99.90;;;;;;4715740;29;20603;-83
2024/04/10 01:35:57;;;;;;;11.67;10.00;;;11.70;99.90;;;;;;4732144;29;20201;-81
2024/04/10 02:01:38;;;;;;;14.57;10.37;;;11.40;99.90;;;;;;4724671;29;20864;-83
2024/04/10 02:26:32;;;;;;;13.50;10.47;;;11.10;99.90;;;;;;4658148;29;20581;-84
2024/04/10 02:57:18;;;;;;;13.20;10.80;;;10.70;99.90;;;;;;4701213;29;20213;-82
2024/04/10 03:22:00;;;;;;;14.77;11.80;;;10.50;99.90;;;;;;4630552;29;20284;-83
2024/04/10 03:38:01;;;;;;;20.83;12.40;;;10.70;99.90;;;;;;4590373;30;20347;-82
2024/04/10 03:42:34;;;;;;;19.80;13.83;;;10.80;99.90;;;;;;4561427;30;20548;-83
2024/04/10 04:02:55;;;;;;;16.00;11.27;;;10.80;99.90;;;;;;4582149;30;20723;-82
2024/04/10 04:33:35;;;;;;;18.63;12.83;;;12.40;99.90;;;;;;4596285;30;20603;-84
2024/04/10 05:44:39;;;;;;;18.53;13.97;;;15.60;99.90;;;;;;4742156;29;20288;-83
2024/04/10 06:09:25;;;;;;;18.40;16.50;;;16.10;99.90;;;;;;4689776;29;20688;-82
2024/04/10 06:35:22;;;;;;;22.37;16.80;;;16.30;99.90;;;;;;4624475;30;20231;-83
2024/04/10 06:55:27;;;;;;;18.77;16.37;;;16.40;99.90;;;;;;4624786;29;20230;-87
2024/04/10 07:26:15;;;;;;;16.10;13.53;;;16.00;99.90;;;;;;4637376;30;21091;-85
2024/04/10 07:56:16;;;;;;;6.90;6.17;;;14.90;99.90;;;;;;4616150;29;20670;-83
2024/04/10 08:26:52;;;;;;;6.43;4.97;;;15.20;97.50;;;;;;4667021;29;20229;-88
2024/04/10 09:02:38;;;;;;;4.23;2.90;;;16.50;83.90;;;;;;4698868;29;20212;-86
2024/04/10 09:27:19;;;;;;;2.63;2.17;;;16.80;80.20;;;;;;4505230;30;20535;-84
2024/04/10 10:28:19;;;;;;;5.37;3.50;;;17.10;79.90;;;;;;4580449;29;20338;-83
2024/04/10 10:49:00;;;;;;;4.77;2.73;;;17.40;78.20;;;;;;4525438;30;20268;-81
2024/04/10 11:24:44;;;;;;;4.70;2.73;;;17.50;72.00;;;;;;4688085;29;20209;-82
2024/04/10 12:00:14;;;;;;;5.03;2.27;;;18.20;67.50;;;;;;4664338;29;20381;-85
2024/04/10 12:40:08;;;;;;;4.37;2.70;;;18.60;67.20;;;;;;4650105;29;20744;-85
2024/04/10 13:26:13;;;;;;;5.80;3.20;;;18.30;66.90;;;;;;4552275;30;20204;-86
2024/04/10 13:56:16;;;;;;;3.67;3.07;;;17.40;69.00;;;;;;4507764;30;20781;-83
2024/04/10 14:22:03;;;;;;;5.67;3.50;;;17.20;76.20;;;;;;4576760;30;20418;-87
2024/04/10 14:37:30;;;;;;;4.67;3.50;;;17.50;71.20;;;;;;4593551;30;20474;-84
2024/04/10 14:41:10;;;;;;;4.67;3.30;;;17.60;69.70;;;;;;4549606;30;20708;-84
2024/04/10 15:07:41;;;;;;;8.10;4.33;;;16.90;77.30;;;;;;4607871;30;20590;-85
2024/04/10 16:18:29;;;;;;;2.53;2.20;;;15.70;76.60;;;;;;4609874;29;20519;-87
2024/04/10 16:39:07;;;;;;;5.63;3.10;;;15.20;82.00;;;;;;4563232;30;20273;-85
2024/04/10 17:14:47;;;;;;;5.00;3.23;;;14.70;82.70;;;;;;4569257;30;20289;-85
2024/04/10 17:55:17;;;;;;;3.53;3.20;;;14.20;84.00;;;;;;4819859;29;20201;-85
2024/04/10 18:35:55;;;;;;;4.97;4.47;;;14.00;86.40;;;;;;4816195;29;20614;-87
2024/04/10 19:05:39;;;;;;;5.10;4.57;;;14.10;87.20;;;;;;4781234;29;21207;-86
2024/04/10 19:21:06;;;;;;;4.87;4.40;;;14.10;87.10;;;;;;4737068;29;20467;-86
2024/04/10 19:41:42;;;;;;;5.80;5.07;;;14.10;88.00;;;;;;4535403;30;20562;-87
2024/04/10 20:12:17;;;;;;;5.83;4.40;;;13.90;88.50;;;;;;4665548;30;20215;-88
2024/04/10 20:37:29;;;;;;;8.13;4.60;;;14.00;88.00;;;;;;4607540;30;20590;-86
2024/04/10 21:02:35;;;;;;;6.63;5.03;;;13.80;87.70;;;;;;4562688;30;20770;-83
2024/04/10 22:33:34;;;;;;;10.77;6.97;;;12.80;86.20;;;;;;4642154;29;20702;-87
2024/04/10 22:54:16;;;;;;;11.00;6.57;;;12.70;87.40;;;;;;4542602;30;20283;-85
2024/04/10 23:19:51;;;;;;;6.83;5.00;;;12.20;85.10;;;;;;4689630;29;20245;-84
